createdAt,value
2023-04-14T00:00:10.194Z,4.98
2023-04-14T00:02:41.154Z,5.33
2023-04-14T00:05:09.610Z,8.82
2023-04-14T00:07:37.586Z,7.40
2023-04-14T00:10:06.215Z,6.23
2023-04-14T00:12:34.159Z,5.29
2023-04-14T00:15:02.121Z,5.59
2023-04-14T00:17:31.133Z,5.43
2023-04-14T00:19:59.270Z,5.56
2023-04-14T00:22:27.378Z,5.58
2023-04-14T00:24:55.241Z,5.45
2023-04-14T00:27:23.125Z,5.11
2023-04-14T00:29:51.012Z,5.18
2023-04-14T00:32:19.219Z,4.61
2023-04-14T00:34:47.173Z,4.43
2023-04-14T00:37:15.277Z,4.41
2023-04-14T00:39:43.206Z,4.54
2023-04-14T00:42:11.041Z,4.64
2023-04-14T00:44:38.917Z,5.15
2023-04-14T00:47:06.830Z,5.47
2023-04-14T00:49:36.595Z,5.57
2023-04-14T00:52:05.677Z,5.78
2023-04-14T00:54:35.179Z,5.91
2023-04-14T00:57:04.164Z,5.35
2023-04-14T00:59:32.003Z,5.25
2023-04-14T01:02:01.493Z,4.66
2023-04-14T01:04:40.519Z,4.45
2023-04-14T01:07:22.492Z,4.33
2023-04-14T01:09:52.130Z,4.57
2023-04-14T01:12:41.470Z,4.39
2023-04-14T01:15:20.542Z,4.58
2023-04-14T01:18:03.697Z,4.69
2023-04-14T01:20:43.158Z,4.62
2023-04-14T01:23:31.983Z,4.57
2023-04-14T01:26:44.653Z,4.14
2023-04-14T01:29:31.274Z,4.31
2023-04-14T01:32:09.757Z,3.90
2023-04-14T01:35:00.376Z,3.64
2023-04-14T01:37:31.885Z,3.62
2023-04-14T01:40:12.705Z,3.11
2023-04-14T01:42:46.622Z,3.52
2023-04-14T01:45:27.187Z,3.25
2023-04-14T01:47:56.115Z,3.85
2023-04-14T01:50:28.112Z,3.53
2023-04-14T01:52:55.985Z,3.94
2023-04-14T01:55:27.166Z,3.74
2023-04-14T01:57:57.869Z,3.78
2023-04-14T02:00:26.858Z,3.40
2023-04-14T02:02:56.163Z,3.36
2023-04-14T02:05:26.336Z,3.37
2023-04-14T02:07:55.785Z,3.18
2023-04-14T02:10:24.681Z,3.12
2023-04-14T02:12:57.544Z,3.16
2023-04-14T02:15:26.236Z,2.99
2023-04-14T02:17:57.992Z,3.35
2023-04-14T02:20:28.172Z,7.41
2023-04-14T02:22:56.246Z,11.02
2023-04-14T02:25:28.149Z,5.16
2023-04-14T02:28:00.804Z,3.36
2023-04-14T02:30:41.780Z,4.05
2023-04-14T02:33:17.218Z,3.27
2023-04-14T02:35:48.980Z,2.73
2023-04-14T02:38:24.568Z,5.99
2023-04-14T02:40:52.829Z,2.65
2023-04-14T02:43:31.074Z,4.32
2023-04-14T02:46:03.081Z,3.24
2023-04-14T02:48:34.190Z,2.87
2023-04-14T02:51:03.810Z,4.17
2023-04-14T02:53:33.596Z,3.25
2023-04-14T02:56:36.930Z,4.17
2023-04-14T02:59:06.126Z,6.40
2023-04-14T03:01:35.966Z,2.60
2023-04-14T03:04:04.850Z,3.43
2023-04-14T03:06:37.850Z,3.61
2023-04-14T03:09:07.253Z,2.24
2023-04-14T03:11:37.457Z,4.44
2023-04-14T03:14:06.260Z,4.32
2023-04-14T03:16:39.410Z,2.12
2023-04-14T03:19:10.421Z,2.55
2023-04-14T03:21:42.374Z,4.72
2023-04-14T03:24:12.401Z,6.38
2023-04-14T03:26:43.545Z,2.68
2023-04-14T03:29:15.297Z,3.45
2023-04-14T03:31:45.606Z,3.75
2023-04-14T03:34:16.039Z,2.70
2023-04-14T03:36:49.984Z,1.91
2023-04-14T03:39:22.358Z,1.45
2023-04-14T03:41:52.031Z,1.45
2023-04-14T03:44:22.860Z,1.25
2023-04-14T03:46:54.570Z,1.61
2023-04-14T03:49:25.643Z,1.59
2023-04-14T03:51:58.945Z,1.61
2023-04-14T03:54:30.503Z,1.48
2023-04-14T03:56:59.748Z,1.58
2023-04-14T03:59:29.787Z,1.69
2023-04-14T04:01:59.256Z,1.85
2023-04-14T04:04:28.023Z,1.65
2023-04-14T04:06:57.088Z,1.59
2023-04-14T04:09:25.667Z,1.54
2023-04-14T04:11:58.369Z,1.58
2023-04-14T04:14:30.041Z,1.55
2023-04-14T04:17:02.606Z,2.12
2023-04-14T04:19:33.488Z,2.83
2023-04-14T04:22:02.316Z,3.31
2023-04-14T04:24:38.051Z,2.43
2023-04-14T04:27:20.299Z,1.96
2023-04-14T04:29:56.045Z,1.94
2023-04-14T04:32:24.102Z,2.22
2023-04-14T04:34:53.225Z,3.01
2023-04-14T04:37:22.010Z,3.72
2023-04-14T04:39:50.083Z,4.29
2023-04-14T04:42:19.988Z,4.95
2023-04-14T04:44:48.065Z,5.64
2023-04-14T04:47:16.002Z,5.76
2023-04-14T04:49:44.682Z,6.57
2023-04-14T04:52:12.575Z,6.77
2023-04-14T04:54:41.283Z,6.99
2023-04-14T04:57:09.119Z,6.79
2023-04-14T04:59:38.054Z,6.87
2023-04-14T05:02:06.459Z,7.04
2023-04-14T05:04:34.442Z,6.81
2023-04-14T05:07:03.492Z,6.52
2023-04-14T05:09:31.761Z,6.39
2023-04-14T05:11:59.590Z,6.48
2023-04-14T05:14:27.864Z,6.93
2023-04-14T05:16:55.824Z,6.85
2023-04-14T05:19:23.691Z,6.98
2023-04-14T05:21:51.540Z,7.79
2023-04-14T05:24:19.497Z,8.91
2023-04-14T05:27:01.837Z,7.43
2023-04-14T05:29:35.293Z,7.33
2023-04-14T05:32:03.160Z,7.53
2023-04-14T05:34:31.172Z,7.74
2023-04-14T05:36:59.121Z,7.92
2023-04-14T05:39:27.144Z,8.24
2023-04-14T05:41:54.996Z,8.16
2023-04-14T05:44:23.892Z,8.98
2023-04-14T05:46:51.737Z,9.36
2023-04-14T05:49:19.646Z,8.11
2023-04-14T05:51:47.478Z,7.87
2023-04-14T05:54:15.757Z,7.78
2023-04-14T05:56:43.648Z,7.29
2023-04-14T05:59:11.717Z,7.44
2023-04-14T06:01:39.698Z,7.17
2023-04-14T06:04:07.867Z,6.59
2023-04-14T06:06:36.377Z,6.54
2023-04-14T06:09:04.206Z,6.53
2023-04-14T06:11:32.218Z,5.44
2023-04-14T06:14:01.991Z,4.46
2023-04-14T06:16:30.139Z,4.81
2023-04-14T06:18:58.501Z,5.43
2023-04-14T06:21:26.421Z,4.61
2023-04-14T06:23:54.305Z,3.29
2023-04-14T06:26:22.428Z,2.61
2023-04-14T06:28:50.245Z,1.83
2023-04-14T06:31:18.140Z,1.89
2023-04-14T06:33:46.601Z,1.59
2023-04-14T06:36:16.950Z,1.95
2023-04-14T06:38:44.967Z,2.10
2023-04-14T06:41:12.808Z,2.28
2023-04-14T06:43:40.760Z,1.97
2023-04-14T06:46:08.635Z,1.98
2023-04-14T06:48:36.503Z,2.24
2023-04-14T06:51:04.400Z,2.40
2023-04-14T06:53:32.230Z,2.23
2023-04-14T06:56:00.531Z,1.94
2023-04-14T06:58:29.214Z,1.84
2023-04-14T07:01:00.446Z,1.86
2023-04-14T07:03:30.492Z,1.92
2023-04-14T07:06:05.835Z,2.21
2023-04-14T07:08:35.274Z,2.22
2023-04-14T07:11:05.842Z,2.32
2023-04-14T07:13:34.358Z,2.16
2023-04-14T07:16:03.394Z,2.01
2023-04-14T07:18:31.904Z,2.10
2023-04-14T07:21:00.248Z,2.30
2023-04-14T07:23:28.658Z,2.31
2023-04-14T07:25:58.685Z,2.45
2023-04-14T07:28:28.213Z,2.25
2023-04-14T07:30:56.676Z,1.95
2023-04-14T07:33:25.461Z,1.94
2023-04-14T07:36:01.349Z,1.78
2023-04-14T07:38:31.809Z,2.98
2023-04-14T07:41:01.352Z,2.41
2023-04-14T07:43:35.002Z,3.34
2023-04-14T07:46:05.181Z,3.51
2023-04-14T07:48:34.886Z,3.43
2023-04-14T07:51:04.312Z,3.07
2023-04-14T07:53:32.910Z,3.24
2023-04-14T07:56:01.049Z,3.47
2023-04-14T07:58:29.660Z,2.49
2023-04-14T08:00:58.466Z,2.12
2023-04-14T08:03:26.724Z,1.91
2023-04-14T08:05:55.428Z,1.64
2023-04-14T08:08:24.173Z,1.80
2023-04-14T08:10:52.134Z,2.00
2023-04-14T08:13:20.288Z,2.05
2023-04-14T08:15:48.256Z,2.00
2023-04-14T08:18:16.470Z,2.05
2023-04-14T08:20:45.524Z,1.96
2023-04-14T08:23:13.476Z,4.59
2023-04-14T08:25:42.345Z,3.27
2023-04-14T08:28:10.238Z,1.79
2023-04-14T08:30:38.567Z,1.76
2023-04-14T08:33:06.901Z,1.97
2023-04-14T08:35:42.227Z,5.56
2023-04-14T08:38:11.428Z,12.20
2023-04-14T08:40:43.775Z,2.77
2023-04-14T08:43:15.349Z,2.04
2023-04-14T08:45:43.633Z,1.60
2023-04-14T08:48:12.222Z,1.82
2023-04-14T08:50:52.332Z,1.62
2023-04-14T08:53:23.181Z,1.34
2023-04-14T08:55:51.800Z,1.37
2023-04-14T08:58:20.039Z,1.44
2023-04-14T09:00:48.395Z,1.11
2023-04-14T09:03:16.771Z,1.20
2023-04-14T09:05:44.896Z,1.22
2023-04-14T09:08:12.969Z,1.45
2023-04-14T09:10:42.765Z,1.59
2023-04-14T09:13:12.819Z,2.09
2023-04-14T09:15:40.976Z,1.73
2023-04-14T09:18:11.636Z,1.42
2023-04-14T09:20:41.370Z,1.54
2023-04-14T09:23:10.672Z,1.10
2023-04-14T09:25:40.161Z,1.05
2023-04-14T09:28:08.329Z,0.96
2023-04-14T09:30:36.745Z,1.10
2023-04-14T09:33:06.371Z,1.25
2023-04-14T09:35:53.132Z,1.04
2023-04-14T09:38:38.724Z,1.10
2023-04-14T09:41:06.734Z,1.12
2023-04-14T09:43:36.747Z,1.04
2023-04-14T09:46:07.531Z,1.07
2023-04-14T09:48:37.588Z,1.21
2023-04-14T09:51:09.974Z,1.38
2023-04-14T09:53:41.178Z,1.44
2023-04-14T09:56:11.650Z,1.29
2023-04-14T09:58:42.164Z,1.49
2023-04-14T10:01:13.604Z,3.02
2023-04-14T10:03:46.424Z,2.94
2023-04-14T10:06:19.369Z,2.13
2023-04-14T10:08:49.735Z,1.35
2023-04-14T10:11:25.037Z,1.66
2023-04-14T10:13:55.066Z,1.50
2023-04-14T10:16:24.008Z,1.39
2023-04-14T10:18:53.319Z,1.35
2023-04-14T10:21:24.504Z,1.67
2023-04-14T10:23:52.408Z,1.72
2023-04-14T10:26:20.768Z,1.51
2023-04-14T10:28:53.961Z,1.75
2023-04-14T10:31:33.341Z,2.56
2023-04-14T10:34:16.007Z,3.00
2023-04-14T10:36:44.144Z,2.21
2023-04-14T10:39:12.585Z,2.70
2023-04-14T10:41:43.690Z,2.40
2023-04-14T10:44:29.691Z,1.83
2023-04-14T10:47:02.016Z,1.80
2023-04-14T10:49:32.803Z,1.83
2023-04-14T10:52:12.731Z,1.92
2023-04-14T10:55:01.522Z,7.94
2023-04-14T10:57:30.268Z,2.71
2023-04-14T10:59:59.899Z,2.30
2023-04-14T11:02:30.908Z,2.25
2023-04-14T11:04:59.129Z,1.93
2023-04-14T11:07:29.017Z,2.18
2023-04-14T11:10:05.333Z,1.97
2023-04-14T11:12:43.533Z,1.96
2023-04-14T11:15:11.752Z,2.32
2023-04-14T11:17:40.969Z,2.70
2023-04-14T11:20:22.710Z,3.01
2023-04-14T11:22:52.455Z,2.60
2023-04-14T11:25:24.606Z,4.01
2023-04-14T11:27:53.066Z,3.57
2023-04-14T11:30:21.904Z,3.30
2023-04-14T11:32:54.795Z,3.21
2023-04-14T11:35:27.735Z,3.27
2023-04-14T11:37:57.966Z,3.77
2023-04-14T11:40:30.182Z,3.36
2023-04-14T11:42:58.967Z,4.05
2023-04-14T11:45:28.590Z,7.10
2023-04-14T11:48:01.676Z,4.11
2023-04-14T11:50:38.709Z,3.74
2023-04-14T11:53:09.354Z,4.24
2023-04-14T11:55:37.226Z,4.57
2023-04-14T11:58:05.172Z,4.26
2023-04-14T12:00:33.216Z,4.04
2023-04-14T12:03:04.952Z,3.18
2023-04-14T12:05:34.246Z,3.81
2023-04-14T12:08:05.048Z,4.05
2023-04-14T12:10:33.824Z,3.54
2023-04-14T12:13:03.489Z,3.60
2023-04-14T12:15:42.162Z,3.65
2023-04-14T12:18:14.011Z,3.45
2023-04-14T12:20:46.954Z,5.75
2023-04-14T12:23:16.042Z,10.30
2023-04-14T12:25:43.893Z,3.96
2023-04-14T12:28:18.684Z,3.47
2023-04-14T12:30:54.959Z,3.50
2023-04-14T12:33:24.094Z,3.11
2023-04-14T12:35:52.475Z,3.03
2023-04-14T12:38:27.499Z,3.02
2023-04-14T12:40:56.661Z,2.86
2023-04-14T12:43:33.034Z,2.66
2023-04-14T12:46:03.708Z,4.88
2023-04-14T12:48:58.621Z,2.85
2023-04-14T12:51:26.447Z,2.50
2023-04-14T12:54:07.359Z,2.82
2023-04-14T12:56:42.215Z,2.52
2023-04-14T12:59:10.309Z,2.56
2023-04-14T13:01:38.482Z,2.66
2023-04-14T13:04:07.157Z,2.31
2023-04-14T13:06:35.506Z,3.55
2023-04-14T13:09:03.795Z,7.06
2023-04-14T13:11:32.112Z,4.05
2023-04-14T13:13:59.972Z,2.76
2023-04-14T13:16:27.999Z,2.05
2023-04-14T13:18:56.184Z,2.39
2023-04-14T13:21:24.072Z,2.31
2023-04-14T13:23:51.926Z,1.99
2023-04-14T13:26:20.049Z,1.95
2023-04-14T13:28:50.354Z,1.84
2023-04-14T13:31:18.458Z,1.77
2023-04-14T13:33:46.679Z,2.02
2023-04-14T13:36:14.698Z,1.88
2023-04-14T13:38:42.551Z,2.21
2023-04-14T13:41:11.143Z,2.39
2023-04-14T13:43:39.027Z,2.05
2023-04-14T13:46:07.116Z,2.51
2023-04-14T13:48:35.378Z,2.13
2023-04-14T13:52:18.647Z,2.17
2023-04-14T13:59:43.341Z,2.19
2023-04-14T14:02:12.776Z,2.49
2023-04-14T14:04:41.018Z,5.87
2023-04-14T14:07:09.096Z,2.61
2023-04-14T14:09:36.941Z,2.61
2023-04-14T14:12:05.173Z,3.57
2023-04-14T14:14:33.219Z,5.58
2023-04-14T14:17:01.504Z,4.50
2023-04-14T14:19:29.432Z,3.87
2023-04-14T14:21:57.249Z,2.10
2023-04-14T14:24:25.193Z,2.09
2023-04-14T14:26:54.113Z,2.26
2023-04-14T14:29:22.623Z,2.69
2023-04-14T14:31:51.211Z,2.63
2023-04-14T14:34:20.171Z,2.63
2023-04-14T14:36:48.085Z,2.90
2023-04-14T14:39:16.004Z,3.08
2023-04-14T14:41:43.990Z,3.28
2023-04-14T14:44:12.045Z,3.21
2023-04-14T14:46:40.732Z,3.31
2023-04-14T14:49:35.580Z,3.88
2023-04-14T14:56:12.522Z,4.05
2023-04-14T14:58:41.246Z,3.98
2023-04-14T15:06:57.328Z,2.96
2023-04-14T15:09:25.332Z,3.56
2023-04-14T15:11:54.196Z,3.95
2023-04-14T15:14:24.666Z,4.10
2023-04-14T15:16:53.290Z,4.31
2023-04-14T15:19:21.226Z,3.49
2023-04-14T15:21:49.509Z,3.87
2023-04-14T15:24:18.185Z,3.47
2023-04-14T15:26:46.261Z,3.38
2023-04-14T15:29:14.552Z,3.78
2023-04-14T15:31:42.780Z,4.41
2023-04-14T15:34:11.954Z,3.75
2023-04-14T15:36:40.608Z,3.21
2023-04-14T15:39:08.519Z,3.18
2023-04-14T15:41:36.842Z,3.03
2023-04-14T15:44:05.244Z,3.33
2023-04-14T15:46:33.282Z,3.34
2023-04-14T15:49:02.071Z,3.74
2023-04-14T15:51:30.015Z,3.56
2023-04-14T15:53:57.916Z,4.24
2023-04-14T15:56:26.044Z,4.37
2023-04-14T15:58:53.989Z,4.30
2023-04-14T16:01:24.967Z,4.27
2023-04-14T16:03:53.108Z,4.35
2023-04-14T16:06:21.830Z,4.64
2023-04-14T16:08:50.363Z,4.75
2023-04-14T16:11:19.811Z,4.72
2023-04-14T16:13:48.193Z,4.85
2023-04-14T16:16:47.127Z,3.92
2023-04-14T16:19:16.219Z,3.82
2023-04-14T16:21:44.189Z,3.61
2023-04-14T16:24:20.614Z,3.95
2023-04-14T16:27:19.060Z,3.62
2023-04-14T16:30:41.579Z,3.38
2023-04-14T16:33:10.175Z,6.61
2023-04-14T16:35:38.095Z,3.27
2023-04-14T16:38:08.777Z,3.46
2023-04-14T16:40:40.591Z,3.83
2023-04-14T16:43:09.706Z,4.40
2023-04-14T16:45:38.178Z,4.23
2023-04-14T16:48:06.253Z,4.36
2023-04-14T16:50:37.635Z,4.50
2023-04-14T16:53:06.423Z,4.71
2023-04-14T16:55:34.331Z,4.65
2023-04-14T16:58:52.448Z,5.10
2023-04-14T17:01:26.541Z,5.20
2023-04-14T17:03:55.669Z,6.33
2023-04-14T17:06:23.843Z,6.34
2023-04-14T17:08:52.603Z,7.34
2023-04-14T17:11:22.870Z,6.99
2023-04-14T17:13:53.278Z,6.64
2023-04-14T17:16:21.427Z,6.87
2023-04-14T17:18:53.729Z,6.59
2023-04-14T17:21:27.212Z,6.34
2023-04-14T17:23:55.449Z,6.12
2023-04-14T17:26:26.171Z,6.82
2023-04-14T17:28:56.722Z,5.76
2023-04-14T17:31:25.110Z,5.77
2023-04-14T17:33:54.067Z,5.80
2023-04-14T17:36:22.679Z,6.01
2023-04-14T17:38:51.909Z,5.52
2023-04-14T17:41:21.235Z,5.36
2023-04-14T17:43:49.780Z,9.73
2023-04-14T17:46:22.944Z,5.14
2023-04-14T17:48:52.394Z,4.82
2023-04-14T17:51:20.910Z,5.16
2023-04-14T17:53:49.883Z,4.98
2023-04-14T17:56:20.072Z,5.28
2023-04-14T17:58:48.851Z,5.03
2023-04-14T18:01:17.778Z,5.79
2023-04-14T18:03:46.273Z,5.68
2023-04-14T18:06:16.252Z,6.69
2023-04-14T18:08:44.601Z,5.17
2023-04-14T18:11:12.967Z,4.64
2023-04-14T18:13:41.548Z,4.68
2023-04-14T18:16:11.805Z,4.52
2023-04-14T18:18:39.712Z,4.58
2023-04-14T18:21:08.229Z,4.91
2023-04-14T18:23:37.025Z,5.21
2023-04-14T18:26:32.693Z,4.77
2023-04-14T18:29:01.409Z,5.31
2023-04-14T18:31:31.395Z,5.17
2023-04-14T18:34:06.429Z,4.84
2023-04-14T18:36:34.261Z,4.29
2023-04-14T18:39:02.394Z,3.89
2023-04-14T18:41:30.482Z,4.22
2023-04-14T18:43:58.519Z,4.18
2023-04-14T18:46:27.597Z,4.24
2023-04-14T18:48:55.595Z,4.58
2023-04-14T18:51:23.471Z,4.25
2023-04-14T18:53:51.391Z,4.46
2023-04-14T18:56:20.099Z,4.97
2023-04-14T18:58:47.973Z,4.90
2023-04-14T19:01:17.234Z,5.21
2023-04-14T19:03:47.177Z,4.83
2023-04-14T19:06:15.206Z,5.04
2023-04-14T19:08:43.031Z,4.66
2023-04-14T19:11:12.135Z,4.73
2023-04-14T19:13:41.863Z,4.70
2023-04-14T19:16:12.664Z,4.79
2023-04-14T19:18:40.950Z,4.92
2023-04-14T19:21:09.147Z,4.93
2023-04-14T19:23:38.260Z,4.80
2023-04-14T19:26:08.287Z,4.77
2023-04-14T19:28:39.704Z,4.64
2023-04-14T19:31:07.583Z,4.97
2023-04-14T19:33:35.511Z,5.28
2023-04-14T19:36:03.660Z,5.99
2023-04-14T19:38:31.919Z,6.02
2023-04-14T19:40:59.805Z,8.80
2023-04-14T19:43:27.607Z,7.25
2023-04-14T19:45:57.520Z,6.49
2023-04-14T19:48:25.510Z,7.35
2023-04-14T19:50:56.937Z,6.11
2023-04-14T19:53:24.802Z,6.66
2023-04-14T19:55:55.836Z,6.46
2023-04-14T19:58:28.668Z,7.20
2023-04-14T20:00:57.506Z,5.79
2023-04-14T20:03:26.703Z,6.30
2023-04-14T20:05:56.715Z,5.92
2023-04-14T20:08:26.320Z,5.76
2023-04-14T20:10:54.962Z,7.34
2023-04-14T20:13:24.398Z,6.83
2023-04-14T20:15:54.910Z,6.08
2023-04-14T20:18:23.225Z,6.32
2023-04-14T20:20:51.205Z,6.33
2023-04-14T20:23:19.122Z,6.52
2023-04-14T20:25:49.027Z,6.36
2023-04-14T20:28:19.340Z,6.84
2023-04-14T20:30:49.387Z,6.60
2023-04-14T20:33:21.521Z,6.42
2023-04-14T20:35:51.203Z,6.23
2023-04-14T20:38:19.265Z,6.24
2023-04-14T20:40:47.131Z,5.92
2023-04-14T20:43:15.056Z,5.90
2023-04-14T20:45:43.005Z,6.36
2023-04-14T20:48:11.264Z,6.33
2023-04-14T20:50:39.194Z,5.84
2023-04-14T20:53:07.454Z,5.86
2023-04-14T20:55:36.524Z,6.09
2023-04-14T20:58:04.616Z,6.06
2023-04-14T21:00:34.229Z,6.72
2023-04-14T21:03:03.652Z,6.47
2023-04-14T21:05:31.642Z,5.84
2023-04-14T21:07:59.448Z,6.55
2023-04-14T21:10:27.463Z,6.32
2023-04-14T21:15:24.824Z,6.18
2023-04-14T21:15:52.237Z,6.60
2023-04-14T21:18:22.336Z,6.46
2023-04-14T21:20:50.170Z,6.29
2023-04-14T21:23:20.222Z,7.97
2023-04-14T21:25:48.290Z,8.76
2023-04-14T21:28:16.481Z,7.01
2023-04-14T21:30:44.478Z,6.64
2023-04-14T21:33:13.092Z,6.32
2023-04-14T21:35:42.216Z,6.36
2023-04-14T21:38:10.228Z,5.75
2023-04-14T21:40:38.115Z,5.99
2023-04-14T21:43:06.231Z,5.81
2023-04-14T21:45:34.175Z,6.41
2023-04-14T21:48:02.908Z,6.83
2023-04-14T21:50:33.004Z,6.79
2023-04-14T21:53:02.627Z,6.94
2023-04-14T21:55:30.890Z,7.24
2023-04-14T21:57:58.990Z,7.21
2023-04-14T22:00:28.165Z,7.02
2023-04-14T22:02:56.122Z,7.79
2023-04-14T22:05:24.363Z,7.25
2023-04-14T22:07:52.938Z,7.52
2023-04-14T22:10:21.802Z,7.11
2023-04-14T22:12:51.012Z,6.60
2023-04-14T22:15:18.892Z,6.84
2023-04-14T22:17:46.753Z,6.85
2023-04-14T22:20:15.399Z,6.45
2023-04-14T22:22:43.222Z,6.19
2023-04-14T22:25:11.710Z,6.11
2023-04-14T22:27:39.572Z,5.95
2023-04-14T22:30:08.165Z,6.42
2023-04-14T22:32:36.414Z,12.44
2023-04-14T22:35:04.743Z,7.90
2023-04-14T22:37:32.744Z,6.17
2023-04-14T22:40:02.922Z,7.35
2023-04-14T22:42:31.140Z,6.24
2023-04-14T22:44:59.037Z,5.59
2023-04-14T22:47:26.997Z,5.70
2023-04-14T22:49:54.914Z,8.76
2023-04-14T22:52:22.859Z,6.79
2023-04-14T22:54:50.792Z,5.93
2023-04-14T22:57:18.675Z,5.81
2023-04-14T22:59:47.575Z,5.81
2023-04-14T23:02:15.567Z,5.71
2023-04-14T23:04:43.549Z,5.44
2023-04-14T23:07:12.220Z,6.20
2023-04-14T23:09:40.043Z,5.36
2023-04-14T23:12:07.871Z,5.35
2023-04-14T23:14:35.732Z,5.24
2023-04-14T23:17:04.276Z,4.75
2023-04-14T23:19:33.591Z,4.97
2023-04-14T23:22:02.316Z,5.04
2023-04-14T23:24:30.273Z,5.02
2023-04-14T23:26:58.272Z,4.96
2023-04-14T23:29:26.534Z,4.98
2023-04-14T23:31:54.446Z,4.90
2023-04-14T23:34:22.289Z,4.61
2023-04-14T23:36:50.674Z,4.57
2023-04-14T23:39:18.581Z,4.50
2023-04-14T23:41:46.397Z,3.95
2023-04-14T23:44:14.285Z,4.43
2023-04-14T23:46:42.225Z,3.85
2023-04-14T23:49:23.850Z,4.11
2023-04-14T23:51:53.142Z,4.06
2023-04-14T23:54:20.982Z,4.21
2023-04-14T23:56:48.822Z,4.34
2023-04-14T23:59:17.108Z,4.25
